sensor_id;sensor_type;location;lat;lon;timestamp;P1;durP1;ratioP1;P2;durP2;ratioP2
66597;SDS011;57424;53.128;6.406;2022-10-31T07:28:09;19.90;;;3.00;;
66597;SDS011;57424;53.128;6.406;2022-10-31T07:30:37;12.77;;;2.42;;
66597;SDS011;57424;53.128;6.406;2022-10-31T07:33:03;9.15;;;2.35;;
66597;SDS011;57424;53.128;6.406;2022-10-31T07:35:30;4.95;;;1.98;;
66597;SDS011;57424;53.128;6.406;2022-10-31T07:37:56;6.07;;;2.00;;
66597;SDS011;57424;53.128;6.406;2022-10-31T07:40:22;4.05;;;2.40;;
66597;SDS011;57424;53.128;6.406;2022-10-31T07:42:49;4.20;;;2.03;;
66597;SDS011;57424;53.128;6.406;2022-10-31T07:45:16;5.10;;;2.10;;
66597;SDS011;57424;53.128;6.406;2022-10-31T07:47:49;4.80;;;2.10;;
66597;SDS011;57424;53.128;6.406;2022-10-31T07:50:17;4.22;;;1.90;;
66597;SDS011;57424;53.128;6.406;2022-10-31T07:52:43;3.20;;;1.90;;
66597;SDS011;57424;53.128;6.406;2022-10-31T07:55:09;3.83;;;2.08;;
66597;SDS011;57424;53.128;6.406;2022-10-31T07:57:35;8.23;;;2.00;;
66597;SDS011;57424;53.128;6.406;2022-10-31T08:00:02;3.00;;;1.90;;
66597;SDS011;57424;53.128;6.406;2022-10-31T08:02:28;4.07;;;1.90;;
66597;SDS011;57424;53.128;6.406;2022-10-31T08:04:54;6.45;;;2.30;;
66597;SDS011;57424;53.128;6.406;2022-10-31T08:07:20;4.43;;;2.33;;
66597;SDS011;57424;53.128;6.406;2022-10-31T08:09:46;2.85;;;2.20;;
66597;SDS011;57424;53.128;6.406;2022-10-31T08:12:12;2.42;;;1.60;;
66597;SDS011;57424;53.128;6.406;2022-10-31T08:14:38;3.92;;;2.03;;
66597;SDS011;57424;53.128;6.406;2022-10-31T08:17:04;3.85;;;2.17;;
66597;SDS011;57424;53.128;6.406;2022-10-31T08:19:30;3.25;;;1.92;;
66597;SDS011;57424;53.128;6.406;2022-10-31T08:21:56;4.15;;;2.10;;
66597;SDS011;57424;53.128;6.406;2022-10-31T08:24:23;2.83;;;1.85;;
66597;SDS011;57424;53.128;6.406;2022-10-31T08:26:49;2.88;;;1.90;;
66597;SDS011;57424;53.128;6.406;2022-10-31T08:29:15;4.07;;;2.10;;
66597;SDS011;57424;53.128;6.406;2022-10-31T08:31:41;7.28;;;1.98;;
66597;SDS011;57424;53.128;6.406;2022-10-31T08:34:08;4.40;;;1.92;;
66597;SDS011;57424;53.128;6.406;2022-10-31T08:36:34;3.72;;;2.20;;
66597;SDS011;57424;53.128;6.406;2022-10-31T08:39:00;7.97;;;2.55;;
66597;SDS011;57424;53.128;6.406;2022-10-31T08:41:26;3.50;;;2.08;;
66597;SDS011;57424;53.128;6.406;2022-10-31T08:43:52;3.08;;;1.60;;
66597;SDS011;57424;53.128;6.406;2022-10-31T08:46:18;6.78;;;2.13;;
66597;SDS011;57424;53.128;6.406;2022-10-31T08:48:44;3.03;;;1.88;;
66597;SDS011;57424;53.128;6.406;2022-10-31T08:51:11;3.47;;;1.98;;
66597;SDS011;57424;53.128;6.406;2022-10-31T08:53:38;4.43;;;1.92;;
66597;SDS011;57424;53.128;6.406;2022-10-31T08:56:04;5.72;;;1.80;;
66597;SDS011;57424;53.128;6.406;2022-10-31T08:58:30;2.88;;;1.90;;
66597;SDS011;57424;53.128;6.406;2022-10-31T09:00:58;2.95;;;1.75;;
66597;SDS011;57424;53.128;6.406;2022-10-31T09:03:25;2.50;;;1.80;;
66597;SDS011;57424;53.128;6.406;2022-10-31T09:05:54;2.73;;;1.73;;
66597;SDS011;57424;53.128;6.406;2022-10-31T09:08:20;4.15;;;2.08;;
66597;SDS011;57424;53.128;6.406;2022-10-31T09:10:46;3.53;;;2.00;;
66597;SDS011;57424;53.128;6.406;2022-10-31T09:13:13;4.22;;;1.83;;
66597;SDS011;57424;53.128;6.406;2022-10-31T09:15:40;5.65;;;2.25;;
66597;SDS011;57424;53.128;6.406;2022-10-31T09:18:07;2.53;;;1.67;;
66597;SDS011;57424;53.128;6.406;2022-10-31T09:20:34;2.75;;;1.80;;
66597;SDS011;57424;53.128;6.406;2022-10-31T09:23:01;3.20;;;1.70;;
66597;SDS011;57424;53.128;6.406;2022-10-31T09:25:28;3.50;;;1.92;;
66597;SDS011;57424;53.128;6.406;2022-10-31T09:27:57;2.90;;;1.60;;
66597;SDS011;57424;53.128;6.406;2022-10-31T09:30:24;2.50;;;1.70;;
66597;SDS011;57424;53.128;6.406;2022-10-31T09:32:56;2.17;;;1.80;;
66597;SDS011;57424;53.128;6.406;2022-10-31T09:35:22;2.15;;;1.73;;
66597;SDS011;57424;53.128;6.406;2022-10-31T09:37:55;4.20;;;1.90;;
66597;SDS011;57424;53.128;6.406;2022-10-31T09:40:21;3.05;;;1.88;;
66597;SDS011;57424;53.128;6.406;2022-10-31T09:42:51;3.28;;;1.50;;
66597;SDS011;57424;53.128;6.406;2022-10-31T09:55:35;2.55;;;1.80;;
66597;SDS011;57424;53.128;6.406;2022-10-31T09:58:02;3.17;;;2.05;;
66597;SDS011;57424;53.128;6.406;2022-10-31T10:00:28;3.25;;;1.75;;
66597;SDS011;57424;53.128;6.406;2022-10-31T10:03:39;3.13;;;1.90;;
66597;SDS011;57424;53.128;6.406;2022-10-31T10:05:48;2.78;;;1.80;;
66597;SDS011;57424;53.128;6.406;2022-10-31T10:08:20;2.72;;;1.85;;
66597;SDS011;57424;53.128;6.406;2022-10-31T10:10:50;3.30;;;2.20;;
66597;SDS011;57424;53.128;6.406;2022-10-31T10:13:32;3.92;;;2.53;;
66597;SDS011;57424;53.128;6.406;2022-10-31T10:16:32;3.50;;;2.17;;
66597;SDS011;57424;53.128;6.406;2022-10-31T10:24:30;3.60;;;1.90;;
66597;SDS011;57424;53.128;6.406;2022-10-31T10:27:05;5.25;;;2.17;;
66597;SDS011;57424;53.128;6.406;2022-10-31T10:29:44;2.58;;;2.10;;
66597;SDS011;57424;53.128;6.406;2022-10-31T10:32:21;2.22;;;1.65;;
66597;SDS011;57424;53.128;6.406;2022-10-31T10:35:00;3.55;;;1.80;;
66597;SDS011;57424;53.128;6.406;2022-10-31T10:37:40;2.65;;;1.80;;
66597;SDS011;57424;53.128;6.406;2022-10-31T10:40:18;3.38;;;1.80;;
66597;SDS011;57424;53.128;6.406;2022-10-31T10:42:59;2.25;;;1.60;;
66597;SDS011;57424;53.128;6.406;2022-10-31T10:45:44;2.85;;;2.17;;
66597;SDS011;57424;53.128;6.406;2022-10-31T10:51:04;3.05;;;1.60;;
66597;SDS011;57424;53.128;6.406;2022-10-31T10:56:43;6.38;;;2.00;;
66597;SDS011;57424;53.128;6.406;2022-10-31T10:59:22;3.33;;;2.00;;
66597;SDS011;57424;53.128;6.406;2022-10-31T11:01:48;1.92;;;1.75;;
66597;SDS011;57424;53.128;6.406;2022-10-31T11:04:33;3.53;;;2.17;;
66597;SDS011;57424;53.128;6.406;2022-10-31T11:07:10;119.85;;;71.57;;
66597;SDS011;57424;53.128;6.406;2022-10-31T11:09:36;267.33;;;131.68;;
66597;SDS011;57424;53.128;6.406;2022-10-31T11:12:07;268.60;;;140.75;;
66597;SDS011;57424;53.128;6.406;2022-10-31T11:14:48;732.75;;;391.98;;
66597;SDS011;57424;53.128;6.406;2022-10-31T11:20:01;766.17;;;370.08;;
66597;SDS011;57424;53.128;6.406;2022-10-31T11:22:30;521.05;;;247.15;;
66597;SDS011;57424;53.128;6.406;2022-10-31T11:24:55;590.50;;;270.70;;
66597;SDS011;57424;53.128;6.406;2022-10-31T11:27:22;323.60;;;166.93;;
66597;SDS011;57424;53.128;6.406;2022-10-31T11:29:49;496.45;;;225.90;;
66597;SDS011;57424;53.128;6.406;2022-10-31T11:34:46;7.75;;;3.97;;
66597;SDS011;57424;53.128;6.406;2022-10-31T11:37:26;6.78;;;2.25;;
66597;SDS011;57424;53.128;6.406;2022-10-31T11:39:54;630.67;;;313.48;;
66597;SDS011;57424;53.128;6.406;2022-10-31T11:44:52;665.80;;;302.55;;
66597;SDS011;57424;53.128;6.406;2022-10-31T11:47:23;2.40;;;1.85;;
66597;SDS011;57424;53.128;6.406;2022-10-31T11:49:52;13.27;;;5.07;;
66597;SDS011;57424;53.128;6.406;2022-10-31T11:54:53;2.83;;;1.50;;
66597;SDS011;57424;53.128;6.406;2022-10-31T11:57:42;2.45;;;1.65;;
66597;SDS011;57424;53.128;6.406;2022-10-31T12:00:26;3.67;;;1.80;;
66597;SDS011;57424;53.128;6.406;2022-10-31T12:05:53;5.18;;;3.25;;
66597;SDS011;57424;53.128;6.406;2022-10-31T12:08:23;13.30;;;6.47;;
66597;SDS011;57424;53.128;6.406;2022-10-31T12:10:59;399.58;;;176.13;;
66597;SDS011;57424;53.128;6.406;2022-10-31T12:16:31;620.40;;;277.73;;
66597;SDS011;57424;53.128;6.406;2022-10-31T12:36:14;744.97;;;362.95;;
66597;SDS011;57424;53.128;6.406;2022-10-31T12:57:46;821.55;;;383.58;;
66597;SDS011;57424;53.128;6.406;2022-10-31T13:00:16;895.75;;;424.80;;
66597;SDS011;57424;53.128;6.406;2022-10-31T13:05:45;919.08;;;440.67;;
66597;SDS011;57424;53.128;6.406;2022-10-31T13:08:18;1023.25;;;512.08;;
66597;SDS011;57424;53.128;6.406;2022-10-31T13:10:49;918.15;;;312.13;;
66597;SDS011;57424;53.128;6.406;2022-10-31T13:13:33;853.45;;;322.27;;
66597;SDS011;57424;53.128;6.406;2022-10-31T13:16:11;83.85;;;54.80;;
66597;SDS011;57424;53.128;6.406;2022-10-31T13:18:42;50.88;;;36.95;;
66597;SDS011;57424;53.128;6.406;2022-10-31T13:21:21;4.05;;;1.90;;
66597;SDS011;57424;53.128;6.406;2022-10-31T13:23:56;3.75;;;2.15;;
66597;SDS011;57424;53.128;6.406;2022-10-31T13:26:46;3.53;;;1.60;;
66597;SDS011;57424;53.128;6.406;2022-10-31T13:31:49;5.53;;;3.75;;
66597;SDS011;57424;53.128;6.406;2022-10-31T13:34:28;79.50;;;36.90;;
66597;SDS011;57424;53.128;6.406;2022-10-31T13:37:05;130.38;;;71.15;;
66597;SDS011;57424;53.128;6.406;2022-10-31T13:39:58;183.75;;;89.18;;
66597;SDS011;57424;53.128;6.406;2022-10-31T13:45:25;387.90;;;158.75;;
66597;SDS011;57424;53.128;6.406;2022-10-31T13:48:34;133.40;;;63.67;;
66597;SDS011;57424;53.128;6.406;2022-10-31T13:50:40;158.05;;;86.82;;
66597;SDS011;57424;53.128;6.406;2022-10-31T13:53:14;154.07;;;91.82;;
66597;SDS011;57424;53.128;6.406;2022-10-31T13:55:44;170.95;;;84.40;;
66597;SDS011;57424;53.128;6.406;2022-10-31T13:58:22;111.40;;;64.07;;
66597;SDS011;57424;53.128;6.406;2022-10-31T14:01:01;162.75;;;91.75;;
66597;SDS011;57424;53.128;6.406;2022-10-31T14:03:39;201.48;;;105.55;;
66597;SDS011;57424;53.128;6.406;2022-10-31T14:06:06;138.77;;;66.20;;
66597;SDS011;57424;53.128;6.406;2022-10-31T14:08:35;41.63;;;32.75;;
66597;SDS011;57424;53.128;6.406;2022-10-31T14:11:08;95.70;;;62.00;;
66597;SDS011;57424;53.128;6.406;2022-10-31T14:13:44;70.57;;;47.50;;
66597;SDS011;57424;53.128;6.406;2022-10-31T14:16:24;81.38;;;51.83;;
66597;SDS011;57424;53.128;6.406;2022-10-31T14:18:51;118.05;;;73.25;;
66597;SDS011;57424;53.128;6.406;2022-10-31T14:21:43;46.38;;;41.65;;
66597;SDS011;57424;53.128;6.406;2022-10-31T14:24:14;54.58;;;48.42;;
66597;SDS011;57424;53.128;6.406;2022-10-31T14:26:50;70.75;;;51.88;;
66597;SDS011;57424;53.128;6.406;2022-10-31T14:29:21;175.60;;;93.97;;
66597;SDS011;57424;53.128;6.406;2022-10-31T14:34:22;145.32;;;73.28;;
66597;SDS011;57424;53.128;6.406;2022-10-31T14:39:56;14.23;;;12.95;;
66597;SDS011;57424;53.128;6.406;2022-10-31T14:45:30;4.38;;;2.20;;
66597;SDS011;57424;53.128;6.406;2022-10-31T14:51:19;27.25;;;18.27;;
66597;SDS011;57424;53.128;6.406;2022-10-31T14:56:19;59.75;;;36.40;;
66597;SDS011;57424;53.128;6.406;2022-10-31T15:03:55;5.78;;;2.15;;
66597;SDS011;57424;53.128;6.406;2022-10-31T15:06:30;66.20;;;33.38;;
66597;SDS011;57424;53.128;6.406;2022-10-31T15:09:29;703.88;;;283.90;;
66597;SDS011;57424;53.128;6.406;2022-10-31T15:11:58;832.88;;;324.20;;
66597;SDS011;57424;53.128;6.406;2022-10-31T15:14:29;1028.63;;;385.70;;
66597;SDS011;57424;53.128;6.406;2022-10-31T15:16:56;1017.42;;;376.08;;
66597;SDS011;57424;53.128;6.406;2022-10-31T15:19:23;1096.40;;;416.23;;
66597;SDS011;57424;53.128;6.406;2022-10-31T15:21:51;1333.30;;;483.73;;
66597;SDS011;57424;53.128;6.406;2022-10-31T15:24:19;830.78;;;303.58;;
66597;SDS011;57424;53.128;6.406;2022-10-31T15:26:47;673.22;;;250.32;;
66597;SDS011;57424;53.128;6.406;2022-10-31T15:29:17;856.22;;;315.58;;
66597;SDS011;57424;53.128;6.406;2022-10-31T15:31:54;1021.72;;;371.52;;
66597;SDS011;57424;53.128;6.406;2022-10-31T15:34:30;907.30;;;320.47;;
66597;SDS011;57424;53.128;6.406;2022-10-31T15:39:28;822.15;;;294.08;;
66597;SDS011;57424;53.128;6.406;2022-10-31T15:41:54;1263.72;;;462.73;;
66597;SDS011;57424;53.128;6.406;2022-10-31T15:47:00;908.00;;;326.87;;
66597;SDS011;57424;53.128;6.406;2022-10-31T15:49:32;737.72;;;265.60;;
66597;SDS011;57424;53.128;6.406;2022-10-31T15:52:15;695.00;;;256.23;;
66597;SDS011;57424;53.128;6.406;2022-10-31T15:54:47;601.05;;;219.65;;
66597;SDS011;57424;53.128;6.406;2022-10-31T15:57:16;635.22;;;233.10;;
66597;SDS011;57424;53.128;6.406;2022-10-31T15:59:44;545.22;;;198.57;;
66597;SDS011;57424;53.128;6.406;2022-10-31T16:02:12;451.83;;;168.82;;
66597;SDS011;57424;53.128;6.406;2022-10-31T16:04:49;551.88;;;199.60;;
66597;SDS011;57424;53.128;6.406;2022-10-31T16:07:22;820.70;;;298.30;;
66597;SDS011;57424;53.128;6.406;2022-10-31T16:10:21;817.03;;;295.77;;
66597;SDS011;57424;53.128;6.406;2022-10-31T16:12:48;885.47;;;320.98;;
66597;SDS011;57424;53.128;6.406;2022-10-31T16:15:14;863.15;;;311.73;;
66597;SDS011;57424;53.128;6.406;2022-10-31T16:17:43;874.97;;;318.35;;
66597;SDS011;57424;53.128;6.406;2022-10-31T16:20:27;948.63;;;342.40;;
66597;SDS011;57424;53.128;6.406;2022-10-31T16:22:56;1019.53;;;363.85;;
66597;SDS011;57424;53.128;6.406;2022-10-31T16:25:27;911.38;;;326.23;;
66597;SDS011;57424;53.128;6.406;2022-10-31T16:28:04;785.83;;;283.95;;
66597;SDS011;57424;53.128;6.406;2022-10-31T16:30:38;761.35;;;277.92;;
66597;SDS011;57424;53.128;6.406;2022-10-31T16:35:53;696.63;;;254.40;;
66597;SDS011;57424;53.128;6.406;2022-10-31T16:38:20;366.77;;;145.80;;
66597;SDS011;57424;53.128;6.406;2022-10-31T16:40:45;626.67;;;228.73;;
66597;SDS011;57424;53.128;6.406;2022-10-31T16:43:12;630.75;;;230.20;;
66597;SDS011;57424;53.128;6.406;2022-10-31T16:45:42;544.95;;;198.88;;
66597;SDS011;57424;53.128;6.406;2022-10-31T16:48:13;683.83;;;248.07;;
66597;SDS011;57424;53.128;6.406;2022-10-31T16:50:43;1056.30;;;378.85;;
66597;SDS011;57424;53.128;6.406;2022-10-31T16:53:11;979.63;;;346.65;;
66597;SDS011;57424;53.128;6.406;2022-10-31T16:55:54;1094.78;;;392.17;;
66597;SDS011;57424;53.128;6.406;2022-10-31T16:58:22;1290.35;;;479.70;;
66597;SDS011;57424;53.128;6.406;2022-10-31T17:00:58;23.27;;;6.70;;
66597;SDS011;57424;53.128;6.406;2022-10-31T17:03:25;22.27;;;7.20;;
66597;SDS011;57424;53.128;6.406;2022-10-31T17:05:51;22.35;;;6.35;;
66597;SDS011;57424;53.128;6.406;2022-10-31T17:08:17;46.30;;;18.23;;
66597;SDS011;57424;53.128;6.406;2022-10-31T17:10:43;22.63;;;6.38;;
66597;SDS011;57424;53.128;6.406;2022-10-31T17:13:13;16.10;;;5.57;;
66597;SDS011;57424;53.128;6.406;2022-10-31T17:15:44;19.50;;;6.28;;
66597;SDS011;57424;53.128;6.406;2022-10-31T17:18:12;17.50;;;5.45;;
66597;SDS011;57424;53.128;6.406;2022-10-31T17:20:39;16.90;;;6.07;;
66597;SDS011;57424;53.128;6.406;2022-10-31T17:23:05;16.15;;;5.82;;
66597;SDS011;57424;53.128;6.406;2022-10-31T17:25:33;17.33;;;5.70;;
66597;SDS011;57424;53.128;6.406;2022-10-31T17:28:00;20.33;;;5.88;;
66597;SDS011;57424;53.128;6.406;2022-10-31T17:30:26;20.77;;;5.13;;
66597;SDS011;57424;53.128;6.406;2022-10-31T17:32:51;14.77;;;5.07;;
66597;SDS011;57424;53.128;6.406;2022-10-31T17:35:17;17.55;;;6.97;;
66597;SDS011;57424;53.128;6.406;2022-10-31T17:37:44;14.15;;;5.95;;
66597;SDS011;57424;53.128;6.406;2022-10-31T17:40:11;15.38;;;4.93;;
66597;SDS011;57424;53.128;6.406;2022-10-31T17:42:38;18.73;;;8.73;;
66597;SDS011;57424;53.128;6.406;2022-10-31T17:45:04;12.55;;;5.35;;
66597;SDS011;57424;53.128;6.406;2022-10-31T17:47:30;13.73;;;4.88;;
66597;SDS011;57424;53.128;6.406;2022-10-31T17:49:57;17.40;;;5.75;;
66597;SDS011;57424;53.128;6.406;2022-10-31T17:52:22;14.60;;;5.03;;
66597;SDS011;57424;53.128;6.406;2022-10-31T17:54:48;14.88;;;5.00;;
66597;SDS011;57424;53.128;6.406;2022-10-31T17:57:13;16.35;;;5.43;;
66597;SDS011;57424;53.128;6.406;2022-10-31T17:59:40;19.50;;;5.78;;
66597;SDS011;57424;53.128;6.406;2022-10-31T18:02:05;18.20;;;5.43;;
66597;SDS011;57424;53.128;6.406;2022-10-31T18:04:36;14.75;;;5.05;;
66597;SDS011;57424;53.128;6.406;2022-10-31T18:07:04;11.55;;;4.70;;
66597;SDS011;57424;53.128;6.406;2022-10-31T18:09:30;10.88;;;4.80;;
66597;SDS011;57424;53.128;6.406;2022-10-31T18:11:55;12.43;;;4.75;;
66597;SDS011;57424;53.128;6.406;2022-10-31T18:14:21;13.77;;;5.70;;
66597;SDS011;57424;53.128;6.406;2022-10-31T18:16:47;14.27;;;5.10;;
66597;SDS011;57424;53.128;6.406;2022-10-31T18:19:13;16.35;;;4.93;;
66597;SDS011;57424;53.128;6.406;2022-10-31T18:21:40;16.30;;;4.70;;
66597;SDS011;57424;53.128;6.406;2022-10-31T18:24:07;22.08;;;4.85;;
66597;SDS011;57424;53.128;6.406;2022-10-31T18:26:33;14.70;;;5.47;;
66597;SDS011;57424;53.128;6.406;2022-10-31T18:28:59;31.25;;;5.55;;
66597;SDS011;57424;53.128;6.406;2022-10-31T18:31:25;12.68;;;4.30;;
66597;SDS011;57424;53.128;6.406;2022-10-31T18:33:54;11.82;;;4.88;;
66597;SDS011;57424;53.128;6.406;2022-10-31T18:36:21;11.57;;;4.70;;
66597;SDS011;57424;53.128;6.406;2022-10-31T18:38:47;13.43;;;4.82;;
66597;SDS011;57424;53.128;6.406;2022-10-31T18:41:13;16.13;;;5.10;;
66597;SDS011;57424;53.128;6.406;2022-10-31T18:43:39;9.90;;;4.32;;
66597;SDS011;57424;53.128;6.406;2022-10-31T18:46:06;11.23;;;4.10;;
66597;SDS011;57424;53.128;6.406;2022-10-31T18:48:36;10.07;;;3.70;;
66597;SDS011;57424;53.128;6.406;2022-10-31T18:51:05;14.45;;;3.97;;
66597;SDS011;57424;53.128;6.406;2022-10-31T18:53:32;9.38;;;4.00;;
66597;SDS011;57424;53.128;6.406;2022-10-31T18:55:59;8.10;;;3.83;;
66597;SDS011;57424;53.128;6.406;2022-10-31T18:58:25;12.40;;;4.80;;
66597;SDS011;57424;53.128;6.406;2022-10-31T19:00:52;14.15;;;4.60;;
66597;SDS011;57424;53.128;6.406;2022-10-31T19:03:18;11.45;;;4.53;;
66597;SDS011;57424;53.128;6.406;2022-10-31T19:05:44;10.05;;;4.13;;
66597;SDS011;57424;53.128;6.406;2022-10-31T19:08:09;10.13;;;4.57;;
66597;SDS011;57424;53.128;6.406;2022-10-31T19:10:36;10.23;;;3.80;;
66597;SDS011;57424;53.128;6.406;2022-10-31T19:13:02;11.55;;;4.25;;
66597;SDS011;57424;53.128;6.406;2022-10-31T19:15:28;11.13;;;4.50;;
66597;SDS011;57424;53.128;6.406;2022-10-31T19:17:54;9.15;;;4.32;;
66597;SDS011;57424;53.128;6.406;2022-10-31T19:20:20;10.27;;;4.40;;
66597;SDS011;57424;53.128;6.406;2022-10-31T19:22:46;9.52;;;3.97;;
66597;SDS011;57424;53.128;6.406;2022-10-31T19:25:11;9.00;;;3.97;;
66597;SDS011;57424;53.128;6.406;2022-10-31T19:27:37;9.38;;;4.20;;
66597;SDS011;57424;53.128;6.406;2022-10-31T19:30:03;8.10;;;3.80;;
66597;SDS011;57424;53.128;6.406;2022-10-31T19:32:29;9.45;;;4.22;;
66597;SDS011;57424;53.128;6.406;2022-10-31T19:34:55;10.35;;;4.82;;
66597;SDS011;57424;53.128;6.406;2022-10-31T19:37:20;8.95;;;3.83;;
66597;SDS011;57424;53.128;6.406;2022-10-31T19:39:46;10.23;;;4.30;;
66597;SDS011;57424;53.128;6.406;2022-10-31T19:42:12;9.25;;;3.85;;
66597;SDS011;57424;53.128;6.406;2022-10-31T19:44:37;11.13;;;4.10;;
66597;SDS011;57424;53.128;6.406;2022-10-31T19:47:03;10.82;;;4.18;;
66597;SDS011;57424;53.128;6.406;2022-10-31T19:49:28;7.35;;;3.80;;
66597;SDS011;57424;53.128;6.406;2022-10-31T19:51:54;10.50;;;4.63;;
66597;SDS011;57424;53.128;6.406;2022-10-31T19:54:19;8.27;;;3.75;;
66597;SDS011;57424;53.128;6.406;2022-10-31T19:56:45;11.30;;;3.67;;
66597;SDS011;57424;53.128;6.406;2022-10-31T19:59:11;9.73;;;3.70;;
66597;SDS011;57424;53.128;6.406;2022-10-31T20:01:36;10.07;;;3.63;;
66597;SDS011;57424;53.128;6.406;2022-10-31T20:04:02;9.80;;;3.92;;
66597;SDS011;57424;53.128;6.406;2022-10-31T20:06:31;9.70;;;3.63;;
66597;SDS011;57424;53.128;6.406;2022-10-31T20:09:00;8.68;;;3.85;;
66597;SDS011;57424;53.128;6.406;2022-10-31T20:11:29;8.70;;;3.95;;
66597;SDS011;57424;53.128;6.406;2022-10-31T20:13:55;8.13;;;3.65;;
66597;SDS011;57424;53.128;6.406;2022-10-31T20:16:22;6.68;;;3.72;;
66597;SDS011;57424;53.128;6.406;2022-10-31T20:18:49;7.88;;;3.60;;
66597;SDS011;57424;53.128;6.406;2022-10-31T20:21:16;9.55;;;3.50;;
66597;SDS011;57424;53.128;6.406;2022-10-31T20:23:46;9.35;;;3.50;;
66597;SDS011;57424;53.128;6.406;2022-10-31T20:26:13;7.57;;;3.72;;
66597;SDS011;57424;53.128;6.406;2022-10-31T20:28:41;8.82;;;4.18;;
66597;SDS011;57424;53.128;6.406;2022-10-31T20:31:07;9.20;;;4.10;;
66597;SDS011;57424;53.128;6.406;2022-10-31T20:33:36;7.07;;;3.47;;
66597;SDS011;57424;53.128;6.406;2022-10-31T20:36:02;10.70;;;3.90;;
66597;SDS011;57424;53.128;6.406;2022-10-31T20:38:29;8.75;;;3.90;;
66597;SDS011;57424;53.128;6.406;2022-10-31T20:41:01;9.85;;;3.88;;
66597;SDS011;57424;53.128;6.406;2022-10-31T20:43:29;10.93;;;3.85;;
66597;SDS011;57424;53.128;6.406;2022-10-31T20:46:02;8.10;;;3.30;;
66597;SDS011;57424;53.128;6.406;2022-10-31T20:48:28;16.33;;;7.35;;
66597;SDS011;57424;53.128;6.406;2022-10-31T20:51:01;9.18;;;4.00;;
66597;SDS011;57424;53.128;6.406;2022-10-31T20:53:29;7.45;;;3.35;;
66597;SDS011;57424;53.128;6.406;2022-10-31T20:56:04;12.63;;;7.80;;
66597;SDS011;57424;53.128;6.406;2022-10-31T20:58:31;9.97;;;3.40;;
66597;SDS011;57424;53.128;6.406;2022-10-31T21:00:57;15.57;;;9.32;;
66597;SDS011;57424;53.128;6.406;2022-10-31T21:03:24;47.00;;;25.40;;
66597;SDS011;57424;53.128;6.406;2022-10-31T21:05:54;8.15;;;3.65;;
66597;SDS011;57424;53.128;6.406;2022-10-31T21:08:21;13.80;;;7.43;;
66597;SDS011;57424;53.128;6.406;2022-10-31T21:10:47;35.80;;;18.08;;
66597;SDS011;57424;53.128;6.406;2022-10-31T21:13:13;7.72;;;3.30;;
66597;SDS011;57424;53.128;6.406;2022-10-31T21:15:39;8.68;;;3.53;;
66597;SDS011;57424;53.128;6.406;2022-10-31T21:18:05;7.88;;;3.65;;
66597;SDS011;57424;53.128;6.406;2022-10-31T21:20:30;5.93;;;3.70;;
66597;SDS011;57424;53.128;6.406;2022-10-31T21:22:56;7.53;;;3.25;;
66597;SDS011;57424;53.128;6.406;2022-10-31T21:25:22;6.68;;;3.08;;
66597;SDS011;57424;53.128;6.406;2022-10-31T21:27:48;11.20;;;5.90;;
66597;SDS011;57424;53.128;6.406;2022-10-31T21:30:14;14.02;;;5.78;;
66597;SDS011;57424;53.128;6.406;2022-10-31T21:32:40;137.88;;;70.50;;
66597;SDS011;57424;53.128;6.406;2022-10-31T21:35:05;47.78;;;30.02;;
66597;SDS011;57424;53.128;6.406;2022-10-31T21:37:31;6.13;;;3.47;;
66597;SDS011;57424;53.128;6.406;2022-10-31T21:39:57;10.50;;;3.22;;
66597;SDS011;57424;53.128;6.406;2022-10-31T21:42:22;7.43;;;3.15;;
66597;SDS011;57424;53.128;6.406;2022-10-31T21:44:49;8.00;;;3.42;;
66597;SDS011;57424;53.128;6.406;2022-10-31T21:47:15;8.85;;;3.38;;
66597;SDS011;57424;53.128;6.406;2022-10-31T21:49:41;8.93;;;3.53;;
66597;SDS011;57424;53.128;6.406;2022-10-31T21:52:06;5.82;;;2.78;;
66597;SDS011;57424;53.128;6.406;2022-10-31T21:54:32;7.45;;;3.70;;
66597;SDS011;57424;53.128;6.406;2022-10-31T21:56:59;9.75;;;3.78;;
66597;SDS011;57424;53.128;6.406;2022-10-31T21:59:25;14.63;;;7.90;;
66597;SDS011;57424;53.128;6.406;2022-10-31T22:01:51;7.53;;;3.45;;
66597;SDS011;57424;53.128;6.406;2022-10-31T22:04:17;6.10;;;3.03;;
66597;SDS011;57424;53.128;6.406;2022-10-31T22:06:43;6.10;;;3.33;;
66597;SDS011;57424;53.128;6.406;2022-10-31T22:09:09;5.55;;;3.33;;
66597;SDS011;57424;53.128;6.406;2022-10-31T22:11:37;6.35;;;3.10;;
66597;SDS011;57424;53.128;6.406;2022-10-31T22:14:04;10.70;;;3.70;;
66597;SDS011;57424;53.128;6.406;2022-10-31T22:16:30;6.95;;;2.97;;
66597;SDS011;57424;53.128;6.406;2022-10-31T22:18:59;5.40;;;3.33;;
66597;SDS011;57424;53.128;6.406;2022-10-31T22:21:29;5.80;;;3.33;;
66597;SDS011;57424;53.128;6.406;2022-10-31T22:23:56;6.55;;;3.50;;
66597;SDS011;57424;53.128;6.406;2022-10-31T22:28:50;6.20;;;3.78;;
66597;SDS011;57424;53.128;6.406;2022-10-31T22:31:18;37.38;;;20.63;;
66597;SDS011;57424;53.128;6.406;2022-10-31T22:33:44;176.37;;;79.30;;
66597;SDS011;57424;53.128;6.406;2022-10-31T22:36:12;164.50;;;80.45;;
66597;SDS011;57424;53.128;6.406;2022-10-31T22:38:39;348.63;;;141.48;;
66597;SDS011;57424;53.128;6.406;2022-10-31T22:41:19;555.28;;;221.07;;
66597;SDS011;57424;53.128;6.406;2022-10-31T22:43:52;572.85;;;234.90;;
66597;SDS011;57424;53.128;6.406;2022-10-31T22:46:20;95.78;;;55.55;;
66597;SDS011;57424;53.128;6.406;2022-10-31T22:48:54;6.90;;;3.42;;
66597;SDS011;57424;53.128;6.406;2022-10-31T22:51:25;8.52;;;3.72;;
66597;SDS011;57424;53.128;6.406;2022-10-31T22:53:52;5.18;;;3.03;;
66597;SDS011;57424;53.128;6.406;2022-10-31T22:56:22;6.78;;;3.13;;
66597;SDS011;57424;53.128;6.406;2022-10-31T22:58:50;6.90;;;3.47;;
66597;SDS011;57424;53.128;6.406;2022-10-31T23:01:19;6.72;;;3.17;;
66597;SDS011;57424;53.128;6.406;2022-10-31T23:03:50;6.13;;;3.63;;
66597;SDS011;57424;53.128;6.406;2022-10-31T23:06:17;5.32;;;2.90;;
66597;SDS011;57424;53.128;6.406;2022-10-31T23:08:44;6.03;;;3.60;;
66597;SDS011;57424;53.128;6.406;2022-10-31T23:11:17;5.20;;;3.20;;
66597;SDS011;57424;53.128;6.406;2022-10-31T23:13:56;13.68;;;6.50;;
66597;SDS011;57424;53.128;6.406;2022-10-31T23:19:12;7.03;;;3.60;;
66597;SDS011;57424;53.128;6.406;2022-10-31T23:21:43;6.85;;;3.80;;
66597;SDS011;57424;53.128;6.406;2022-10-31T23:24:32;7.65;;;3.78;;
66597;SDS011;57424;53.128;6.406;2022-10-31T23:27:13;7.05;;;4.20;;
66597;SDS011;57424;53.128;6.406;2022-10-31T23:30:00;9.40;;;6.97;;
66597;SDS011;57424;53.128;6.406;2022-10-31T23:32:29;158.18;;;88.05;;
66597;SDS011;57424;53.128;6.406;2022-10-31T23:35:00;5.50;;;3.35;;
66597;SDS011;57424;53.128;6.406;2022-10-31T23:37:29;6.82;;;3.20;;
66597;SDS011;57424;53.128;6.406;2022-10-31T23:39:56;6.45;;;3.90;;
66597;SDS011;57424;53.128;6.406;2022-10-31T23:42:22;6.18;;;3.30;;
66597;SDS011;57424;53.128;6.406;2022-10-31T23:44:48;5.68;;;3.47;;
66597;SDS011;57424;53.128;6.406;2022-10-31T23:47:14;4.85;;;3.50;;
66597;SDS011;57424;53.128;6.406;2022-10-31T23:49:40;6.20;;;4.03;;
66597;SDS011;57424;53.128;6.406;2022-10-31T23:52:06;5.75;;;3.92;;
66597;SDS011;57424;53.128;6.406;2022-10-31T23:54:32;5.80;;;3.40;;
66597;SDS011;57424;53.128;6.406;2022-10-31T23:56:58;5.35;;;3.22;;
66597;SDS011;57424;53.128;6.406;2022-10-31T23:59:24;6.68;;;3.75;;
